Terminal Aerodrome Forecast
Issued by NWS Cleveland, OH

Home | Current Version | Previous Version | Text Only | Print | Product List | Glossary Off
Versions: 1 2 3 4 5 6 7 8 9 10 11 12 13 14 15 16 17 18 19 20 21 22 23

000
FTUS41 KCLE 191257 AAA
TAFTOL
TAF AMD
KTOL 191257Z 1913/2012 17006KT 6SM -SHRA OVC018 WS020/22040KT
      TEMPO 1913/1915 3SM -SHRA BR OVC007
     FM191500 18007KT 3SM SHRA BR OVC004 WS020/21045KT
     FM200000 21011KT 4SM -SHRA BR BKN008 OVC018 WS020/22045KT=

USA.gov is the U.S. government's official web portal to all federal, state and local government web resources and services.